Time;durP1;ratioP1;P1;durP2;ratioP2;P2;SDS_P1;SDS_P2;PMS_P1;PMS_P2;Temp;Humidity;BMP_temperature;BMP_pressure;BME280_temperature;BME280_humidity;BME280_pressure;Samples;Min_cycle;Max_cycle;Signal;HPM_P1;HPM_P2
2022/05/26 00:01:16;;;;;;;3.70;0.80;;;15.60;97.50;;;;;;5028983;28;20475;-61
2022/05/26 00:03:43;;;;;;;8.82;0.77;;;15.60;97.50;;;;;;5024565;28;20112;-59
2022/05/26 00:06:11;;;;;;;8.15;0.90;;;15.60;97.60;;;;;;5006893;28;20446;-61
2022/05/26 00:08:37;;;;;;;1.75;0.55;;;15.60;97.80;;;;;;5014173;28;20128;-61
2022/05/26 00:11:09;;;;;;;3.38;0.80;;;15.50;98.10;;;;;;5016728;28;20037;-61
2022/05/26 00:13:36;;;;;;;2.60;0.90;;;15.50;98.50;;;;;;5012396;28;20018;-61
2022/05/26 00:16:02;;;;;;;4.40;0.80;;;15.50;98.50;;;;;;5019165;28;20059;-61
2022/05/26 00:18:28;;;;;;;12.30;0.90;;;15.50;98.90;;;;;;5019037;28;20541;-61
2022/05/26 00:20:53;;;;;;;4.72;0.70;;;15.50;99.00;;;;;;5018078;28;20036;-61
2022/05/26 00:23:19;;;;;;;3.25;0.80;;;15.40;99.20;;;;;;5013376;28;20042;-59
2022/05/26 00:25:45;;;;;;;7.87;0.77;;;15.40;99.60;;;;;;5017016;28;20041;-60
2022/05/26 00:28:11;;;;;;;3.05;0.75;;;15.40;99.80;;;;;;5022303;28;20026;-60
2022/05/26 00:30:37;;;;;;;2.13;0.65;;;15.40;99.80;;;;;;5018337;28;20030;-61
2022/05/26 00:33:05;;;;;;;1.00;0.50;;;15.40;99.90;;;;;;5016144;28;20025;-60
2022/05/26 00:35:34;;;;;;;4.10;0.57;;;15.40;99.90;;;;;;5017106;28;20030;-61
2022/05/26 00:38:03;;;;;;;4.30;0.60;;;15.40;99.90;;;;;;5014382;28;20033;-60
2022/05/26 00:40:29;;;;;;;2.85;0.60;;;15.30;99.90;;;;;;5018604;28;20274;-59
2022/05/26 00:42:54;;;;;;;2.10;0.82;;;15.30;99.90;;;;;;5021208;28;20514;-61
2022/05/26 00:45:20;;;;;;;2.17;0.57;;;15.30;99.90;;;;;;5018571;28;20049;-61
2022/05/26 00:47:47;;;;;;;3.78;0.73;;;15.30;99.90;;;;;;5012645;28;20068;-58
2022/05/26 00:50:26;;;;;;;3.17;0.77;;;15.30;99.90;;;;;;5027647;28;20033;-60
2022/05/26 00:53:12;;;;;;;1.50;0.40;;;15.30;99.90;;;;;;5026790;28;20037;-61
2022/05/26 00:55:45;;;;;;;2.63;0.70;;;15.20;99.90;;;;;;5026108;28;20030;-60
2022/05/26 00:58:22;;;;;;;4.10;0.90;;;15.20;99.90;;;;;;5028553;28;20034;-60
2022/05/26 01:00:48;;;;;;;4.60;0.73;;;15.10;99.90;;;;;;5029519;28;20399;-61
2022/05/26 01:03:23;;;;;;;1.20;0.50;;;15.10;99.90;;;;;;5024115;28;20021;-61
2022/05/26 01:05:52;;;;;;;2.90;0.85;;;15.10;99.90;;;;;;5008212;28;20580;-60
2022/05/26 01:08:23;;;;;;;3.05;0.70;;;15.00;99.90;;;;;;5028387;28;20057;-60
2022/05/26 01:10:49;;;;;;;7.40;0.70;;;15.00;99.90;;;;;;5023087;28;20029;-60
2022/05/26 01:13:17;;;;;;;3.05;1.25;;;15.00;99.90;;;;;;5009699;28;20021;-61
2022/05/26 01:15:49;;;;;;;4.00;0.63;;;15.00;99.90;;;;;;5028078;28;20032;-60
2022/05/26 01:18:29;;;;;;;2.00;0.50;;;14.90;99.90;;;;;;5021490;28;20022;-60
2022/05/26 01:21:17;;;;;;;2.75;0.50;;;14.90;99.90;;;;;;5024418;28;20522;-60
2022/05/26 01:23:59;;;;;;;1.77;0.77;;;14.90;99.90;;;;;;5024072;28;20040;-61
2022/05/26 01:26:40;;;;;;;2.03;0.70;;;14.90;99.90;;;;;;5027493;28;20095;-61
2022/05/26 01:29:27;;;;;;;4.43;0.70;;;14.80;99.90;;;;;;5032582;28;20100;-60
2022/05/26 01:32:17;;;;;;;2.42;0.65;;;14.80;99.90;;;;;;5030803;28;20030;-60
2022/05/26 01:35:01;;;;;;;4.32;1.00;;;14.80;99.90;;;;;;5033573;28;20025;-60
2022/05/26 01:37:43;;;;;;;2.13;0.98;;;14.70;99.90;;;;;;5033499;28;20030;-61
2022/05/26 01:40:19;;;;;;;3.67;0.85;;;14.70;99.90;;;;;;5030931;28;20411;-58
2022/05/26 01:42:52;;;;;;;4.30;1.13;;;14.70;99.90;;;;;;5025381;28;20033;-60
2022/05/26 01:45:35;;;;;;;4.25;0.82;;;14.70;99.90;;;;;;5031290;28;20028;-60
2022/05/26 01:48:24;;;;;;;2.83;0.68;;;14.70;99.90;;;;;;5016319;28;20045;-61
2022/05/26 01:51:15;;;;;;;6.05;0.68;;;14.70;99.90;;;;;;5025820;28;20034;-60
2022/05/26 01:54:11;;;;;;;2.10;0.82;;;14.70;99.90;;;;;;5028565;28;20518;-61
2022/05/26 01:56:46;;;;;;;1.98;1.00;;;14.70;99.90;;;;;;5029904;28;20026;-61
2022/05/26 01:59:17;;;;;;;1.90;0.70;;;14.80;99.90;;;;;;5031345;28;20490;-60
2022/05/26 02:01:50;;;;;;;2.50;0.65;;;14.70;99.90;;;;;;5030602;28;20033;-61
2022/05/26 02:04:32;;;;;;;9.25;1.00;;;14.70;99.90;;;;;;5028790;28;21499;-60
2022/05/26 02:07:06;;;;;;;4.32;0.70;;;14.70;99.90;;;;;;5030193;28;20099;-61
2022/05/26 02:09:41;;;;;;;3.00;0.70;;;14.70;99.90;;;;;;5032473;28;20057;-60
2022/05/26 02:12:14;;;;;;;4.00;0.70;;;14.70;99.90;;;;;;5029806;28;20032;-61
2022/05/26 02:14:42;;;;;;;5.18;0.82;;;14.70;99.90;;;;;;5027434;28;20037;-60
2022/05/26 02:17:17;;;;;;;6.53;0.70;;;14.70;99.90;;;;;;5028673;28;20040;-61
2022/05/26 02:19:50;;;;;;;2.78;0.90;;;14.70;99.90;;;;;;5030195;28;20044;-60
2022/05/26 02:22:37;;;;;;;3.67;0.95;;;14.70;99.90;;;;;;5030710;28;20140;-60
2022/05/26 02:25:19;;;;;;;2.78;0.90;;;14.70;99.90;;;;;;5031687;28;20549;-60
2022/05/26 02:27:45;;;;;;;2.65;0.73;;;14.60;99.90;;;;;;5026643;28;20099;-58
2022/05/26 02:30:12;;;;;;;5.50;1.15;;;14.60;99.90;;;;;;5022744;28;20030;-61
2022/05/26 02:32:41;;;;;;;1.38;0.60;;;14.60;99.90;;;;;;5030623;28;20406;-60
2022/05/26 02:35:17;;;;;;;1.85;0.90;;;14.60;99.90;;;;;;5031944;28;20033;-60
2022/05/26 02:37:45;;;;;;;1.60;0.70;;;14.60;99.90;;;;;;5013833;28;20453;-60
2022/05/26 02:40:12;;;;;;;4.05;0.63;;;14.60;99.90;;;;;;5029583;28;20036;-60
2022/05/26 02:42:54;;;;;;;4.22;1.30;;;14.60;99.90;;;;;;5012070;28;20030;-60
2022/05/26 02:45:43;;;;;;;3.42;0.82;;;14.50;99.90;;;;;;5030636;28;20143;-60
2022/05/26 02:48:31;;;;;;;3.80;1.08;;;14.50;99.90;;;;;;4993216;28;20511;-60
2022/05/26 02:51:09;;;;;;;2.42;0.98;;;14.50;99.90;;;;;;5010125;28;20038;-61
2022/05/26 02:53:46;;;;;;;2.08;0.90;;;14.50;99.90;;;;;;5004275;28;20029;-60
2022/05/26 02:56:37;;;;;;;2.53;0.80;;;14.50;99.90;;;;;;5009900;28;20045;-60
2022/05/26 02:59:17;;;;;;;3.28;1.15;;;14.50;99.90;;;;;;5012270;28;20060;-60
2022/05/26 03:02:03;;;;;;;1.45;0.60;;;14.50;99.90;;;;;;5000976;28;20476;-60
2022/05/26 03:04:43;;;;;;;3.67;0.70;;;14.50;99.90;;;;;;5009986;28;20022;-60
2022/05/26 03:07:13;;;;;;;2.80;0.68;;;14.50;99.90;;;;;;5003537;28;20366;-60
2022/05/26 03:09:41;;;;;;;2.17;0.70;;;14.50;99.90;;;;;;4993074;28;20404;-61
2022/05/26 03:12:24;;;;;;;6.93;0.80;;;14.50;99.90;;;;;;5006690;28;20034;-60
2022/05/26 03:14:49;;;;;;;3.30;0.70;;;14.50;99.90;;;;;;5011012;28;20029;-61
2022/05/26 03:17:15;;;;;;;4.68;2.47;;;14.50;99.90;;;;;;5002095;28;20129;-61
2022/05/26 03:19:41;;;;;;;2.67;0.65;;;14.50;99.90;;;;;;5009814;28;20033;-60
2022/05/26 03:22:06;;;;;;;4.72;1.20;;;14.50;99.90;;;;;;5007666;28;20034;-60
2022/05/26 03:24:33;;;;;;;2.80;0.80;;;14.40;99.90;;;;;;5010566;28;20033;-61
2022/05/26 03:26:58;;;;;;;1.60;0.60;;;14.50;99.90;;;;;;5010880;28;20034;-60
2022/05/26 03:29:24;;;;;;;1.08;0.80;;;14.50;99.90;;;;;;5009687;28;20113;-60
2022/05/26 03:31:49;;;;;;;1.85;0.65;;;14.50;99.90;;;;;;5004179;28;20033;-59
2022/05/26 03:42:27;;;;;;;;;;;14.30;99.90;;;;;;5001232;28;20116;-60
2022/05/26 03:44:53;;;;;;;1.80;0.85;;;14.30;99.90;;;;;;5009282;28;19944;-60
2022/05/26 03:47:19;;;;;;;4.40;0.98;;;14.40;99.90;;;;;;4985285;28;20046;-60
2022/05/26 03:49:44;;;;;;;3.95;0.85;;;14.40;99.90;;;;;;5010242;28;20105;-60
2022/05/26 03:52:10;;;;;;;2.85;1.05;;;14.30;99.90;;;;;;5005077;28;20022;-61
2022/05/26 03:54:36;;;;;;;2.10;0.88;;;14.40;99.90;;;;;;5008952;28;20030;-60
2022/05/26 03:57:03;;;;;;;3.55;0.88;;;14.30;99.90;;;;;;5007627;28;20468;-61
2022/05/26 03:59:29;;;;;;;2.42;0.90;;;14.40;99.90;;;;;;5011429;28;20041;-61
2022/05/26 04:01:55;;;;;;;4.63;0.98;;;14.40;99.90;;;;;;5009330;28;20054;-59
2022/05/26 04:04:20;;;;;;;4.50;1.08;;;14.40;99.90;;;;;;5009771;28;20022;-60
2022/05/26 04:06:46;;;;;;;4.47;1.83;;;14.30;99.90;;;;;;5006684;28;20080;-61
2022/05/26 04:09:11;;;;;;;6.03;1.15;;;14.30;99.90;;;;;;5008894;28;20036;-60
2022/05/26 04:11:37;;;;;;;3.38;1.02;;;14.40;99.90;;;;;;4998639;28;20019;-60
2022/05/26 04:14:02;;;;;;;2.90;1.00;;;14.40;99.90;;;;;;5002086;28;20042;-60
2022/05/26 04:16:28;;;;;;;3.03;1.33;;;14.30;99.90;;;;;;5001449;28;20462;-60
2022/05/26 04:18:53;;;;;;;3.28;1.30;;;14.30;99.90;;;;;;5007866;28;20065;-60
2022/05/26 04:21:19;;;;;;;9.23;1.25;;;14.40;99.90;;;;;;5006134;28;20108;-59
2022/05/26 04:23:45;;;;;;;7.70;1.30;;;14.40;99.90;;;;;;5000077;28;20071;-59
2022/05/26 04:26:11;;;;;;;3.08;0.98;;;14.40;99.90;;;;;;5002130;28;20038;-60
2022/05/26 04:28:37;;;;;;;3.38;1.30;;;14.40;99.90;;;;;;5004419;28;20042;-60
2022/05/26 04:31:04;;;;;;;4.20;1.52;;;14.40;99.90;;;;;;5002151;28;20032;-61
2022/05/26 04:33:29;;;;;;;5.93;1.50;;;14.50;99.90;;;;;;5008760;28;20092;-58
2022/05/26 04:35:56;;;;;;;7.50;1.42;;;14.50;99.90;;;;;;5003480;28;20022;-61
2022/05/26 04:38:22;;;;;;;4.57;1.77;;;14.50;99.90;;;;;;5003990;28;20033;-61
2022/05/26 04:41:02;;;;;;;7.00;1.60;;;14.60;99.90;;;;;;5002045;28;20038;-61
2022/05/26 04:43:28;;;;;;;5.32;1.70;;;14.60;99.90;;;;;;5006140;28;20542;-60
2022/05/26 04:45:54;;;;;;;4.72;1.65;;;14.60;99.90;;;;;;5006529;28;20047;-59
2022/05/26 04:48:21;;;;;;;8.25;2.20;;;14.60;99.90;;;;;;4984530;28;20049;-61
2022/05/26 04:50:49;;;;;;;12.00;2.17;;;14.60;99.90;;;;;;5004787;28;20018;-61
2022/05/26 04:53:15;;;;;;;6.32;1.85;;;14.70;99.90;;;;;;5005628;28;20471;-60
2022/05/26 04:55:40;;;;;;;5.93;1.20;;;14.70;99.90;;;;;;5005000;28;20034;-61
2022/05/26 04:58:06;;;;;;;9.75;2.28;;;14.70;99.90;;;;;;5010322;28;20034;-60
2022/05/26 05:00:31;;;;;;;4.20;1.45;;;14.60;99.90;;;;;;5009370;28;20132;-60
2022/05/26 05:02:57;;;;;;;5.85;1.75;;;14.60;99.90;;;;;;4995670;28;20054;-61
2022/05/26 05:05:22;;;;;;;5.93;2.05;;;14.70;99.90;;;;;;5002249;28;20034;-60
2022/05/26 05:07:48;;;;;;;5.82;1.55;;;14.60;99.90;;;;;;5004494;28;20034;-59
2022/05/26 05:10:14;;;;;;;9.23;2.63;;;14.60;99.90;;;;;;5005060;28;20551;-60
2022/05/26 05:12:40;;;;;;;4.93;1.60;;;14.70;99.90;;;;;;5009106;28;20113;-59
2022/05/26 05:15:13;;;;;;;11.85;2.50;;;14.80;99.90;;;;;;5005970;28;20044;-60
2022/05/26 05:17:39;;;;;;;6.35;2.10;;;14.80;99.90;;;;;;5007657;28;20124;-61
2022/05/26 05:20:06;;;;;;;8.80;2.00;;;14.90;99.90;;;;;;5008217;28;20045;-61
2022/05/26 05:22:40;;;;;;;4.13;1.85;;;15.00;99.90;;;;;;5000555;28;20038;-61
2022/05/26 05:25:22;;;;;;;9.65;2.03;;;15.10;99.90;;;;;;5005048;28;20041;-61
2022/05/26 05:28:15;;;;;;;8.63;2.50;;;15.20;99.90;;;;;;5006785;28;20030;-60
2022/05/26 05:31:00;;;;;;;6.65;1.90;;;15.10;99.90;;;;;;4997345;28;21065;-60
2022/05/26 05:33:39;;;;;;;7.50;2.10;;;15.00;99.90;;;;;;5006038;28;20101;-60
2022/05/26 05:36:07;;;;;;;8.63;1.77;;;15.00;99.90;;;;;;5007223;28;20022;-60
2022/05/26 05:38:35;;;;;;;11.48;2.13;;;15.10;99.90;;;;;;5006216;28;20022;-61
2022/05/26 05:41:01;;;;;;;6.43;2.90;;;15.10;99.90;;;;;;5001869;28;20129;-61
2022/05/26 05:43:29;;;;;;;9.70;2.55;;;15.20;99.90;;;;;;5003991;28;20083;-61
2022/05/26 05:45:55;;;;;;;11.52;2.95;;;15.30;99.90;;;;;;5006639;28;20053;-61
2022/05/26 05:48:21;;;;;;;10.07;2.65;;;15.30;99.90;;;;;;4991497;28;20088;-61
2022/05/26 05:50:47;;;;;;;7.13;2.22;;;15.30;99.90;;;;;;5005434;28;20061;-60
2022/05/26 05:53:15;;;;;;;5.88;2.38;;;15.40;99.90;;;;;;4999246;28;20514;-61
2022/05/26 05:55:41;;;;;;;6.57;2.50;;;15.40;99.90;;;;;;5005997;28;20527;-61
2022/05/26 05:58:08;;;;;;;7.80;2.40;;;15.40;99.90;;;;;;5009583;28;20034;-61
2022/05/26 06:00:34;;;;;;;8.15;2.58;;;15.70;99.90;;;;;;5006295;28;20029;-61
2022/05/26 06:03:00;;;;;;;7.55;2.90;;;15.80;99.90;;;;;;5007504;28;20087;-61
2022/05/26 06:05:25;;;;;;;10.27;3.17;;;15.80;99.90;;;;;;5004214;28;20499;-61
2022/05/26 06:07:52;;;;;;;9.43;2.78;;;16.00;99.90;;;;;;5000413;28;20034;-58
2022/05/26 06:10:17;;;;;;;13.50;3.03;;;16.00;99.90;;;;;;5000541;28;20527;-60
2022/05/26 06:12:43;;;;;;;8.98;2.90;;;16.20;99.90;;;;;;4999664;28;20034;-61
2022/05/26 06:15:09;;;;;;;13.85;2.90;;;16.20;99.90;;;;;;5010332;28;20030;-60
2022/05/26 06:17:35;;;;;;;8.85;2.47;;;16.00;99.90;;;;;;5011708;28;20040;-61
2022/05/26 06:20:01;;;;;;;10.48;2.90;;;15.90;99.90;;;;;;5008817;28;20037;-60
2022/05/26 06:22:29;;;;;;;8.45;3.75;;;16.00;99.90;;;;;;5002903;28;20030;-60
2022/05/26 06:24:54;;;;;;;12.00;3.40;;;15.90;99.90;;;;;;5004203;28;20034;-60
2022/05/26 06:30:16;;;;;;;8.23;2.78;;;16.20;99.90;;;;;;4973605;28;20052;-62
2022/05/26 06:38:24;;;;;;;9.77;3.38;;;16.90;99.90;;;;;;5012237;28;20113;-61
2022/05/26 06:40:50;;;;;;;10.60;2.90;;;17.10;99.90;;;;;;5008197;28;20049;-61
2022/05/26 06:43:16;;;;;;;10.07;3.35;;;17.20;99.90;;;;;;5007609;28;20049;-60
2022/05/26 06:45:44;;;;;;;9.30;3.53;;;17.20;99.90;;;;;;5006549;28;20044;-60
2022/05/26 06:48:09;;;;;;;9.25;2.90;;;17.20;99.90;;;;;;4994647;28;20495;-61
2022/05/26 06:50:35;;;;;;;10.57;3.28;;;17.60;99.90;;;;;;5003594;28;20036;-61
2022/05/26 06:53:01;;;;;;;8.32;3.70;;;17.50;99.90;;;;;;4999453;28;20040;-61
2022/05/26 06:55:27;;;;;;;15.30;3.92;;;17.60;99.90;;;;;;5008805;28;20108;-61
2022/05/26 06:57:53;;;;;;;11.40;3.17;;;17.30;99.90;;;;;;5010523;28;20029;-61
2022/05/26 07:00:19;;;;;;;17.77;3.90;;;17.70;99.90;;;;;;5007532;28;20544;-60
2022/05/26 07:02:46;;;;;;;7.97;3.22;;;18.00;99.90;;;;;;5004838;28;20026;-60
2022/05/26 07:05:12;;;;;;;9.48;3.28;;;18.40;99.90;;;;;;5009684;28;20047;-61
2022/05/26 07:07:41;;;;;;;8.73;3.15;;;18.60;99.90;;;;;;5011228;28;20025;-62
2022/05/26 07:10:08;;;;;;;10.35;3.63;;;18.40;99.90;;;;;;5008279;28;20037;-61
2022/05/26 07:12:35;;;;;;;11.85;3.35;;;18.40;99.90;;;;;;5001899;28;20022;-61
2022/05/26 07:15:03;;;;;;;11.48;3.50;;;18.60;99.90;;;;;;5009425;28;20022;-61
2022/05/26 07:17:29;;;;;;;9.50;3.78;;;18.20;99.90;;;;;;5011172;28;20037;-62
2022/05/26 07:19:55;;;;;;;8.15;3.25;;;18.20;99.90;;;;;;5007673;28;20532;-60
2022/05/26 07:22:21;;;;;;;15.88;4.20;;;18.00;99.90;;;;;;5006463;28;20030;-61
2022/05/26 07:24:49;;;;;;;7.43;3.35;;;18.00;99.90;;;;;;5005586;28;20041;-61
2022/05/26 07:27:15;;;;;;;11.57;4.15;;;18.00;99.90;;;;;;5008595;28;20029;-61
2022/05/26 07:29:41;;;;;;;13.93;3.90;;;18.30;99.90;;;;;;5008065;28;20026;-62
2022/05/26 07:32:07;;;;;;;7.78;3.45;;;19.00;99.90;;;;;;5000410;28;20033;-62
2022/05/26 07:34:32;;;;;;;10.15;3.22;;;19.30;99.90;;;;;;5003787;28;20109;-61
2022/05/26 07:42:31;;;;;;;11.35;4.13;;;19.10;99.90;;;;;;5001795;28;20450;-61
2022/05/26 07:44:58;;;;;;;11.35;4.05;;;18.90;99.90;;;;;;5009713;28;20060;-61
2022/05/26 07:47:26;;;;;;;11.13;3.22;;;19.00;99.90;;;;;;5003096;28;20026;-61
2022/05/26 07:49:52;;;;;;;10.13;3.28;;;19.20;99.90;;;;;;4998174;28;20099;-60
2022/05/26 07:52:18;;;;;;;8.00;3.33;;;19.50;99.90;;;;;;5004276;28;20018;-62
2022/05/26 07:54:44;;;;;;;10.50;2.97;;;20.20;99.10;;;;;;5008271;28;20813;-61
2022/05/26 07:57:23;;;;;;;6.90;2.60;;;20.70;97.30;;;;;;5011393;28;20116;-61
2022/05/26 07:59:50;;;;;;;11.20;3.22;;;21.00;97.40;;;;;;5018515;28;20026;-62
2022/05/26 08:02:17;;;;;;;9.93;3.17;;;20.60;97.20;;;;;;5008359;28;20600;-61
2022/05/26 08:04:43;;;;;;;8.50;3.00;;;20.10;97.30;;;;;;5009594;28;20553;-61
2022/05/26 08:07:08;;;;;;;8.18;2.95;;;19.50;98.80;;;;;;5007202;28;20108;-61
2022/05/26 08:09:37;;;;;;;13.77;3.67;;;19.00;99.60;;;;;;5008236;28;20022;-61
2022/05/26 08:12:07;;;;;;;10.60;3.45;;;18.50;99.90;;;;;;5003803;28;20027;-61
2022/05/26 08:14:33;;;;;;;12.02;3.50;;;18.40;99.90;;;;;;5006934;28;20510;-61
2022/05/26 08:16:59;;;;;;;11.45;3.08;;;18.70;99.90;;;;;;5010536;28;20033;-61
2022/05/26 08:19:25;;;;;;;5.97;2.50;;;20.10;99.90;;;;;;5005514;28;20025;-61
2022/05/26 08:21:51;;;;;;;9.10;3.38;;;21.80;97.10;;;;;;5005698;28;20026;-61
2022/05/26 08:24:19;;;;;;;7.20;2.63;;;22.70;94.30;;;;;;5009208;28;20771;-61
2022/05/26 08:26:48;;;;;;;8.73;2.40;;;24.10;92.80;;;;;;5006548;28;20041;-60
2022/05/26 08:29:14;;;;;;;9.93;2.20;;;25.40;88.40;;;;;;5006003;28;20449;-62
2022/05/26 08:31:40;;;;;;;9.45;2.47;;;25.50;84.50;;;;;;5006563;28;20057;-61
2022/05/26 08:34:06;;;;;;;8.40;2.30;;;24.80;84.60;;;;;;5009545;28;20112;-61
2022/05/26 08:36:34;;;;;;;9.05;2.92;;;24.50;84.10;;;;;;5007182;28;20030;-61
2022/05/26 08:38:59;;;;;;;7.65;2.38;;;24.60;84.60;;;;;;5016649;28;20036;-62
2022/05/26 08:41:31;;;;;;;6.22;2.00;;;23.80;85.30;;;;;;5008098;28;20026;-61
2022/05/26 08:44:03;;;;;;;5.70;1.95;;;22.20;88.00;;;;;;5005860;28;20049;-60
2022/05/26 08:46:42;;;;;;;7.50;2.40;;;21.20;91.20;;;;;;5003481;28;20042;-61
2022/05/26 08:49:07;;;;;;;5.72;2.28;;;22.00;92.50;;;;;;4988889;28;20041;-61
2022/05/26 08:51:47;;;;;;;7.05;2.40;;;23.30;91.00;;;;;;5009695;28;20076;-61
2022/05/26 08:54:18;;;;;;;9.38;2.88;;;24.00;87.20;;;;;;5014108;28;20040;-62
2022/05/26 08:56:47;;;;;;;8.32;2.08;;;24.60;83.30;;;;;;5005689;28;20491;-62
2022/05/26 08:59:14;;;;;;;9.95;2.30;;;25.50;82.20;;;;;;5009815;28;20042;-60
2022/05/26 09:01:40;;;;;;;9.07;2.53;;;26.20;78.40;;;;;;5003314;28;20538;-60
2022/05/26 09:04:06;;;;;;;6.97;2.67;;;25.00;79.50;;;;;;5005430;28;20033;-60
2022/05/26 09:12:55;;;;;;;8.93;2.90;;;23.90;82.70;;;;;;4999643;28;20029;-60
2022/05/26 09:14:52;;;;;;;10.32;3.25;;;22.20;86.60;;;;;;4998950;28;20502;-58
2022/05/26 09:17:18;;;;;;;6.80;3.50;;;21.60;89.70;;;;;;5004595;28;20042;-58
2022/05/26 09:19:43;;;;;;;11.57;2.88;;;21.00;90.40;;;;;;5003505;28;20026;-60
2022/05/26 09:22:29;;;;;;;9.00;2.92;;;21.30;91.30;;;;;;5007100;28;20109;-61
2022/05/26 09:24:56;;;;;;;7.75;2.92;;;21.10;91.00;;;;;;5011890;28;20038;-60
2022/05/26 09:27:29;;;;;;;8.40;2.78;;;21.70;90.90;;;;;;5007866;28;20060;-61
2022/05/26 09:30:15;;;;;;;9.98;2.70;;;22.70;90.20;;;;;;5008909;28;20022;-60
2022/05/26 09:32:40;;;;;;;6.90;2.60;;;23.20;88.00;;;;;;5010702;28;20063;-60
2022/05/26 09:35:28;;;;;;;5.63;1.98;;;23.20;86.10;;;;;;5005850;28;20029;-60
2022/05/26 09:38:05;;;;;;;7.95;3.08;;;22.70;87.20;;;;;;5008776;28;20403;-60
2022/05/26 09:40:36;;;;;;;7.18;2.83;;;22.80;87.20;;;;;;5003388;28;20061;-60
2022/05/26 09:43:17;;;;;;;6.00;3.22;;;22.70;85.70;;;;;;5005554;28;20373;-60
2022/05/26 09:45:45;;;;;;;7.90;2.60;;;22.60;86.60;;;;;;5000607;28;20040;-62
2022/05/26 09:48:16;;;;;;;9.60;3.35;;;23.00;87.50;;;;;;4986320;28;20045;-60
2022/05/26 09:50:47;;;;;;;6.05;2.45;;;23.20;85.30;;;;;;5007201;28;20026;-61
2022/05/26 09:53:13;;;;;;;7.85;2.20;;;23.50;85.40;;;;;;5005948;28;20041;-61
2022/05/26 09:55:45;;;;;;;8.18;2.28;;;23.70;81.50;;;;;;5007772;28;20066;-61
2022/05/26 09:58:13;;;;;;;5.10;1.90;;;24.60;81.00;;;;;;5008999;28;20034;-60
2022/05/26 10:00:40;;;;;;;4.45;1.88;;;25.40;79.00;;;;;;5009742;28;20026;-61
2022/05/26 10:03:32;;;;;;;4.40;2.10;;;25.40;77.10;;;;;;5012636;28;20591;-60
2022/05/26 10:06:11;;;;;;;5.90;1.95;;;24.80;78.70;;;;;;4992853;28;20059;-62
2022/05/26 10:08:52;;;;;;;6.60;1.88;;;24.80;78.60;;;;;;5011341;28;20056;-61
2022/05/26 10:11:30;;;;;;;9.82;3.05;;;24.80;78.10;;;;;;5008778;28;20423;-61
2022/05/26 10:14:30;;;;;;;9.63;3.28;;;23.90;79.10;;;;;;5006580;28;20033;-61
2022/05/26 10:17:06;;;;;;;8.38;2.30;;;23.80;81.90;;;;;;5006815;28;20034;-61
2022/05/26 10:19:56;;;;;;;7.70;2.10;;;22.80;82.40;;;;;;5008841;28;20030;-61
2022/05/26 10:22:39;;;;;;;7.75;2.38;;;22.80;81.70;;;;;;5007427;28;20041;-61
2022/05/26 10:25:19;;;;;;;8.77;2.33;;;22.90;82.40;;;;;;4999719;28;20581;-60
2022/05/26 10:28:00;;;;;;;9.45;2.97;;;23.00;83.00;;;;;;5013504;28;20034;-61
2022/05/26 10:30:35;;;;;;;6.80;2.25;;;23.50;83.90;;;;;;5004987;28;20491;-60
2022/05/26 10:33:25;;;;;;;8.23;1.92;;;23.10;83.90;;;;;;5014742;28;20022;-60
2022/05/26 10:36:12;;;;;;;5.85;1.98;;;22.70;82.10;;;;;;5015178;28;20044;-58
2022/05/26 10:39:07;;;;;;;8.48;2.88;;;22.40;82.20;;;;;;5009463;28;20030;-61
2022/05/26 10:41:42;;;;;;;11.77;2.45;;;22.40;82.20;;;;;;5022446;28;20167;-60
2022/05/26 10:44:13;;;;;;;4.70;1.67;;;22.10;82.40;;;;;;5031518;28;20097;-61
2022/05/26 10:46:44;;;;;;;7.25;2.13;;;22.20;84.70;;;;;;5014975;28;20045;-60
2022/05/26 10:49:23;;;;;;;5.75;2.42;;;22.20;84.40;;;;;;4982442;28;20049;-61
2022/05/26 10:52:08;;;;;;;7.25;2.85;;;22.30;84.90;;;;;;5015126;28;20029;-59
2022/05/26 10:54:37;;;;;;;7.30;2.45;;;22.40;83.70;;;;;;5020788;28;20033;-60
2022/05/26 10:57:15;;;;;;;11.93;2.53;;;21.90;84.20;;;;;;5018903;28;20029;-61
2022/05/26 11:00:01;;;;;;;8.18;2.40;;;21.80;85.50;;;;;;5010713;28;20041;-59
2022/05/26 11:03:04;;;;;;;8.90;2.67;;;21.70;86.60;;;;;;5022267;28;20445;-61
2022/05/26 11:05:50;;;;;;;10.63;2.35;;;21.50;87.20;;;;;;5009000;28;20021;-60
2022/05/26 11:08:32;;;;;;;8.00;2.50;;;22.00;88.30;;;;;;5018038;28;20025;-60
2022/05/26 11:11:10;;;;;;;10.18;2.50;;;22.30;84.60;;;;;;5009241;28;20092;-60
2022/05/26 11:14:02;;;;;;;10.98;2.65;;;21.90;85.50;;;;;;5019024;28;20057;-60
2022/05/26 11:19:39;;;;;;;14.95;2.95;;;21.90;87.30;;;;;;5008500;28;20025;-61
2022/05/26 11:22:08;;;;;;;13.05;2.97;;;22.40;86.00;;;;;;5007141;28;20661;-60
2022/05/26 11:24:34;;;;;;;12.38;3.10;;;22.80;84.70;;;;;;5011729;28;20030;-60
2022/05/26 11:27:08;;;;;;;7.05;2.40;;;23.20;82.40;;;;;;5021145;28;20060;-61
2022/05/26 11:29:44;;;;;;;6.75;2.13;;;23.50;82.50;;;;;;5011047;28;20388;-60
2022/05/26 11:38:13;;;;;;;11.43;1.92;;;23.00;82.30;;;;;;5005351;28;20036;-60
2022/05/26 11:40:49;;;;;;;8.68;2.47;;;23.30;83.20;;;;;;5008265;28;20038;-60
2022/05/26 11:43:29;;;;;;;5.93;2.50;;;23.40;81.70;;;;;;5010806;28;20034;-58
2022/05/26 11:45:57;;;;;;;7.18;2.20;;;23.10;81.20;;;;;;5015230;28;20181;-61
2022/05/26 11:48:32;;;;;;;12.48;2.97;;;22.60;82.40;;;;;;4994263;28;20698;-60
2022/05/26 11:51:14;;;;;;;6.50;2.70;;;22.10;82.40;;;;;;5001735;28;20392;-59
2022/05/26 11:53:49;;;;;;;8.00;2.20;;;21.70;82.80;;;;;;5000006;28;20030;-60
2022/05/26 11:56:24;;;;;;;4.72;1.75;;;21.60;85.90;;;;;;5002656;28;20109;-60
2022/05/26 11:59:26;;;;;;;3.05;1.45;;;21.70;83.90;;;;;;4999817;28;20037;-59
2022/05/26 12:02:00;;;;;;;9.07;2.00;;;21.90;82.60;;;;;;5002457;28;20017;-59
2022/05/26 12:04:34;;;;;;;7.00;1.75;;;21.90;82.00;;;;;;4999439;28;20033;-59
2022/05/26 12:07:21;;;;;;;9.00;1.67;;;21.80;82.40;;;;;;5000086;28;20113;-60
2022/05/26 12:09:54;;;;;;;9.40;1.95;;;21.90;81.40;;;;;;4996779;28;20044;-60
2022/05/26 12:12:22;;;;;;;8.38;1.45;;;21.80;82.10;;;;;;4999520;28;20045;-60
2022/05/26 12:14:52;;;;;;;8.68;1.88;;;21.70;83.80;;;;;;5005155;28;20493;-61
2022/05/26 12:17:29;;;;;;;6.28;1.77;;;22.20;84.80;;;;;;4996625;28;20014;-60
2022/05/26 12:20:05;;;;;;;7.00;1.80;;;22.40;82.20;;;;;;4997841;28;20024;-60
2022/05/26 12:22:41;;;;;;;4.03;1.60;;;22.80;79.60;;;;;;4999342;28;20090;-60
2022/05/26 12:25:20;;;;;;;8.77;2.05;;;22.90;82.30;;;;;;4996232;28;20076;-61
2022/05/26 12:27:49;;;;;;;6.47;1.85;;;22.90;82.00;;;;;;4994167;28;20065;-60
2022/05/26 12:30:45;;;;;;;4.82;1.30;;;22.90;77.30;;;;;;5002288;28;20025;-61
2022/05/26 12:33:19;;;;;;;6.80;2.35;;;23.10;77.50;;;;;;5002067;28;21492;-61
2022/05/26 12:35:48;;;;;;;5.35;1.67;;;23.10;77.00;;;;;;5007854;28;20538;-60
2022/05/26 12:38:29;;;;;;;4.10;1.50;;;23.20;78.90;;;;;;5011361;28;20042;-60
2022/05/26 12:41:14;;;;;;;5.22;1.67;;;22.80;78.50;;;;;;4998360;28;20403;-61
2022/05/26 12:43:54;;;;;;;9.98;2.50;;;22.40;79.90;;;;;;4997422;28;20054;-61
2022/05/26 12:46:41;;;;;;;5.10;1.67;;;22.60;81.90;;;;;;5005450;28;20038;-60
2022/05/26 12:49:45;;;;;;;6.75;1.83;;;22.70;80.70;;;;;;4989614;28;20051;-61
2022/05/26 12:52:19;;;;;;;6.72;1.67;;;22.60;79.40;;;;;;5008659;28;20452;-60
2022/05/26 12:55:10;;;;;;;6.07;1.88;;;22.40;78.60;;;;;;5010546;28;20084;-59
2022/05/26 12:57:39;;;;;;;8.07;1.75;;;22.20;78.60;;;;;;5005227;28;20030;-61
2022/05/26 13:00:45;;;;;;;7.95;1.67;;;22.30;78.30;;;;;;5006712;28;20560;-59
2022/05/26 13:03:13;;;;;;;5.00;1.63;;;22.40;78.60;;;;;;4902479;29;20048;-61
2022/05/26 13:05:42;;;;;;;5.90;1.70;;;23.00;78.00;;;;;;4991129;28;20038;-61
2022/05/26 13:08:16;;;;;;;9.55;2.35;;;23.00;77.60;;;;;;5008390;28;20033;-59
2022/05/26 13:10:43;;;;;;;5.07;1.65;;;23.10;76.30;;;;;;5007368;28;20024;-61
2022/05/26 13:13:17;;;;;;;5.15;1.85;;;23.30;77.60;;;;;;5007110;28;20037;-61
2022/05/26 13:15:45;;;;;;;7.38;2.28;;;23.40;77.00;;;;;;5006334;28;20040;-61
2022/05/26 13:18:22;;;;;;;13.30;2.92;;;22.90;76.00;;;;;;5009350;28;20052;-61
2022/05/26 13:20:48;;;;;;;8.55;2.10;;;22.60;77.70;;;;;;4999915;28;20033;-60
2022/05/26 13:23:30;;;;;;;6.07;2.00;;;22.60;79.50;;;;;;5005097;28;20056;-60
2022/05/26 13:25:57;;;;;;;7.47;2.33;;;22.90;78.20;;;;;;5009540;28;20042;-59
2022/05/26 13:28:30;;;;;;;8.00;2.10;;;23.10;78.30;;;;;;5009405;28;20029;-61
2022/05/26 13:33:44;;;;;;;8.65;2.92;;;22.70;77.70;;;;;;5010306;28;20057;-60
2022/05/26 13:36:17;;;;;;;11.52;3.13;;;22.50;78.80;;;;;;5012386;28;20029;-61
2022/05/26 13:38:46;;;;;;;;;;;22.50;80.20;;;;;;5012011;28;20037;-60
2022/05/26 13:41:27;;;;;;;5.95;3.45;;;22.50;80.60;;;;;;5009345;28;19917;-61
2022/05/26 13:43:54;;;;;;;9.52;3.80;;;22.50;79.70;;;;;;5008275;28;20487;-61
2022/05/26 13:46:32;;;;;;;6.03;2.92;;;22.40;80.30;;;;;;5009293;28;20030;-61
2022/05/26 13:49:01;;;;;;;7.35;3.13;;;22.30;78.70;;;;;;4991712;28;20025;-59
2022/05/26 13:51:41;;;;;;;8.55;3.10;;;22.50;78.40;;;;;;5012322;28;20052;-61